Time;durP1;ratioP1;P1;durP2;ratioP2;P2;SDS_P1;SDS_P2;PMS_P1;PMS_P2;Temp;Humidity;BMP_temperature;BMP_pressure;BME280_temperature;BME280_humidity;BME280_pressure;Samples;Min_cycle;Max_cycle;Signal;HPM_P1;HPM_P2
2023/08/04 00:01:57;;;;;;;0.10;0.10;;;;;;;;;;5012503;28;20578;-62
2023/08/04 00:04:23;;;;;;;0.10;0.10;;;;;;;;;;5016880;28;20034;-62
2023/08/04 00:06:49;;;;;;;0.10;0.10;;;;;;;;;;5010757;28;20029;-62
2023/08/04 00:09:16;;;;;;;0.10;0.10;;;;;;;;;;5014633;28;20040;-62
2023/08/04 00:11:42;;;;;;;0.98;0.30;;;;;;;;;;5012263;28;20475;-62
2023/08/04 00:14:09;;;;;;;0.20;0.10;;;;;;;;;;5016363;28;20496;-62
2023/08/04 00:16:35;;;;;;;0.20;0.20;;;;;;;;;;5014164;28;20038;-62
2023/08/04 00:19:01;;;;;;;0.10;0.10;;;;;;;;;;5012770;28;20033;-62
2023/08/04 00:21:27;;;;;;;0.57;0.20;;;;;;;;;;5014900;28;20483;-62
2023/08/04 00:24:02;;;;;;;0.75;0.40;;;;;;;;;;5012195;28;20112;-62
2023/08/04 00:26:28;;;;;;;0.20;0.20;;;;;;;;;;5013697;28;20499;-62
2023/08/04 00:28:54;;;;;;;0.30;0.30;;;;;;;;;;5014882;28;20119;-62
2023/08/04 00:31:20;;;;;;;0.10;0.10;;;;;;;;;;5011972;28;20050;-62
2023/08/04 00:33:46;;;;;;;0.65;0.20;;;;;;;;;;5012094;28;20115;-62
2023/08/04 00:36:12;;;;;;;0.20;0.20;;;;;;;;;;5013196;28;20041;-62
2023/08/04 00:38:38;;;;;;;0.10;0.10;;;;;;;;;;5015553;28;20044;-62
2023/08/04 00:41:04;;;;;;;0.25;0.25;;;;;;;;;;5012509;28;20384;-62
2023/08/04 00:43:30;;;;;;;0.32;0.05;;;;;;;;;;5012118;28;20048;-62
2023/08/04 00:45:56;;;;;;;0.13;0.13;;;;;;;;;;5013994;28;20046;-62
2023/08/04 00:48:22;;;;;;;0.10;0.10;;;;;;;;;;5011050;28;20517;-62
2023/08/04 00:50:48;;;;;;;0.28;0.20;;;;;;;;;;5013229;28;20045;-63
2023/08/04 00:53:14;;;;;;;0.10;0.10;;;;;;;;;;5011243;28;20038;-62
2023/08/04 00:55:42;;;;;;;0.20;0.20;;;;;;;;;;5011950;28;20144;-62
2023/08/04 00:58:08;;;;;;;0.15;0.10;;;;;;;;;;5011977;28;20500;-62
2023/08/04 01:00:34;;;;;;;0.10;0.10;;;;;;;;;;5011623;28;20077;-62
2023/08/04 01:03:00;;;;;;;0.20;0.10;;;;;;;;;;5012184;28;20049;-62
2023/08/04 01:05:32;;;;;;;0.20;0.20;;;;;;;;;;5015348;28;20037;-62
2023/08/04 01:08:03;;;;;;;0.38;0.13;;;;;;;;;;5015021;28;20088;-62
2023/08/04 01:10:40;;;;;;;0.30;0.22;;;;;;;;;;5011079;28;20084;-62
2023/08/04 01:13:07;;;;;;;0.15;0.10;;;;;;;;;;5010960;28;20176;-62
2023/08/04 01:15:34;;;;;;;0.20;0.20;;;;;;;;;;5011028;28;20654;-62
2023/08/04 01:18:00;;;;;;;0.10;0.10;;;;;;;;;;5014565;28;20928;-62
2023/08/04 01:20:26;;;;;;;0.10;0.10;;;;;;;;;;5013595;28;20690;-62
2023/08/04 01:22:53;;;;;;;0.10;0.00;;;;;;;;;;5011419;28;20116;-62
2023/08/04 01:25:22;;;;;;;0.08;0.05;;;;;;;;;;5012406;28;20042;-61
2023/08/04 01:27:50;;;;;;;0.10;0.10;;;;;;;;;;5011285;28;20128;-62
2023/08/04 01:30:19;;;;;;;0.00;0.00;;;;;;;;;;5013755;28;20510;-62
2023/08/04 01:32:46;;;;;;;0.45;0.17;;;;;;;;;;5013217;28;20048;-63
2023/08/04 01:35:13;;;;;;;0.20;0.20;;;;;;;;;;5011892;28;20559;-63
2023/08/04 01:37:39;;;;;;;0.10;0.10;;;;;;;;;;5011221;28;20065;-62
2023/08/04 01:40:05;;;;;;;0.40;0.22;;;;;;;;;;5010961;28;20372;-62
2023/08/04 01:42:31;;;;;;;0.50;0.25;;;;;;;;;;5013673;28;20041;-62
2023/08/04 01:44:57;;;;;;;0.32;0.30;;;;;;;;;;5011949;28;20041;-62
2023/08/04 01:47:23;;;;;;;0.40;0.13;;;;;;;;;;5013637;28;20063;-62
2023/08/04 01:49:49;;;;;;;0.30;0.28;;;;;;;;;;5009369;28;20087;-62
2023/08/04 01:52:15;;;;;;;0.10;0.10;;;;;;;;;;5013221;28;20144;-62
2023/08/04 01:54:41;;;;;;;0.22;0.20;;;;;;;;;;5011158;28;20058;-62
2023/08/04 01:57:08;;;;;;;0.20;0.20;;;;;;;;;;5014754;28;20045;-62
2023/08/04 01:59:34;;;;;;;0.47;0.10;;;;;;;;;;5005403;28;20049;-62
2023/08/04 02:02:00;;;;;;;0.10;0.10;;;;;;;;;;5011297;28;20163;-62
2023/08/04 02:04:26;;;;;;;0.30;0.10;;;;;;;;;;5011898;28;20042;-62
2023/08/04 02:06:52;;;;;;;0.20;0.20;;;;;;;;;;5012860;28;20041;-62
2023/08/04 02:09:18;;;;;;;0.00;0.00;;;;;;;;;;5014752;28;20030;-62
2023/08/04 02:11:44;;;;;;;0.20;0.20;;;;;;;;;;5010559;28;20053;-62
2023/08/04 02:14:11;;;;;;;0.08;0.08;;;;;;;;;;5004323;28;20120;-62
2023/08/04 02:16:37;;;;;;;0.28;0.20;;;;;;;;;;5003281;28;20033;-62
2023/08/04 02:19:04;;;;;;;0.35;0.30;;;;;;;;;;5006829;28;20033;-61
2023/08/04 02:21:30;;;;;;;0.20;0.20;;;;;;;;;;5010004;28;20518;-62
2023/08/04 02:23:56;;;;;;;0.20;0.20;;;;;;;;;;5011797;28;20046;-62
2023/08/04 02:26:23;;;;;;;0.28;0.10;;;;;;;;;;5009169;28;20654;-62
2023/08/04 02:28:50;;;;;;;0.10;0.10;;;;;;;;;;5011227;28;20129;-62
2023/08/04 02:31:17;;;;;;;0.10;0.10;;;;;;;;;;5012668;28;20034;-62
2023/08/04 02:33:43;;;;;;;0.10;0.10;;;;;;;;;;5014019;28;20069;-62
2023/08/04 02:36:10;;;;;;;0.43;0.20;;;;;;;;;;5015183;28;20034;-62
2023/08/04 02:38:36;;;;;;;0.10;0.10;;;;;;;;;;5015360;28;20046;-62
2023/08/04 02:41:03;;;;;;;0.00;0.00;;;;;;;;;;5013241;28;20076;-62
2023/08/04 02:43:32;;;;;;;0.20;0.20;;;;;;;;;;5014732;28;20034;-62
2023/08/04 02:45:58;;;;;;;0.10;0.10;;;;;;;;;;5017435;28;20072;-62
2023/08/04 02:48:24;;;;;;;0.05;0.05;;;;;;;;;;5015878;28;20613;-62
2023/08/04 02:51:04;;;;;;;0.13;0.13;;;;;;;;;;5016756;28;20037;-63
2023/08/04 02:53:30;;;;;;;0.00;0.00;;;;;;;;;;5015364;28;20345;-63
2023/08/04 02:55:56;;;;;;;0.03;0.03;;;;;;;;;;5014647;28;20411;-62
2023/08/04 02:58:23;;;;;;;0.00;0.00;;;;;;;;;;5015608;28;20199;-61
2023/08/04 03:00:49;;;;;;;0.22;0.10;;;;;;;;;;5016821;28;20461;-62
2023/08/04 03:03:15;;;;;;;0.08;0.08;;;;;;;;;;5015332;28;20051;-63
2023/08/04 03:05:41;;;;;;;0.15;0.15;;;;;;;;;;5015085;28;20042;-63
2023/08/04 03:08:07;;;;;;;0.10;0.10;;;;;;;;;;5011656;28;20092;-63
2023/08/04 03:10:33;;;;;;;0.10;0.10;;;;;;;;;;5015808;28;20427;-62
2023/08/04 03:12:59;;;;;;;0.10;0.10;;;;;;;;;;5014305;28;20454;-62
2023/08/04 03:15:25;;;;;;;0.10;0.10;;;;;;;;;;5015038;28;20075;-62
2023/08/04 03:17:51;;;;;;;0.08;0.08;;;;;;;;;;5014855;28;20685;-62
2023/08/04 03:20:17;;;;;;;0.20;0.10;;;;;;;;;;5013522;28;20030;-62
2023/08/04 03:22:43;;;;;;;0.30;0.10;;;;;;;;;;5017797;28;20045;-62
2023/08/04 03:25:09;;;;;;;0.00;0.00;;;;;;;;;;5012985;28;20045;-62
2023/08/04 03:27:36;;;;;;;0.32;0.00;;;;;;;;;;5013479;28;20064;-62
2023/08/04 03:30:02;;;;;;;0.20;0.08;;;;;;;;;;5014224;28;20136;-62
2023/08/04 03:32:28;;;;;;;0.10;0.10;;;;;;;;;;5012483;28;20357;-62
2023/08/04 03:34:54;;;;;;;0.20;0.20;;;;;;;;;;5011747;28;20121;-62
2023/08/04 03:37:20;;;;;;;0.10;0.10;;;;;;;;;;5011777;28;20128;-62
2023/08/04 03:39:46;;;;;;;0.80;0.20;;;;;;;;;;5010849;28;20069;-62
2023/08/04 03:42:12;;;;;;;0.70;0.25;;;;;;;;;;5013234;28;20561;-62
2023/08/04 03:44:38;;;;;;;0.20;0.20;;;;;;;;;;5012679;28;20033;-62
2023/08/04 03:47:04;;;;;;;0.10;0.10;;;;;;;;;;5014627;28;20048;-62
2023/08/04 03:49:30;;;;;;;0.10;0.10;;;;;;;;;;5013406;28;20049;-62
2023/08/04 03:51:56;;;;;;;0.13;0.13;;;;;;;;;;5013263;28;20052;-62
2023/08/04 03:54:22;;;;;;;0.10;0.10;;;;;;;;;;5011692;28;20053;-62
2023/08/04 03:56:48;;;;;;;0.10;0.10;;;;;;;;;;5011866;28;20063;-62
2023/08/04 03:59:14;;;;;;;0.20;0.10;;;;;;;;;;5013038;28;20124;-62
2023/08/04 04:01:41;;;;;;;0.60;0.32;;;;;;;;;;5014237;28;20839;-62
2023/08/04 04:04:07;;;;;;;0.30;0.25;;;;;;;;;;5012848;28;20122;-62
2023/08/04 04:06:33;;;;;;;0.40;0.30;;;;;;;;;;5014984;28;20120;-62
2023/08/04 04:08:59;;;;;;;0.10;0.10;;;;;;;;;;5017103;28;20140;-62
2023/08/04 04:11:25;;;;;;;0.68;0.20;;;;;;;;;;5014734;28;20199;-62
2023/08/04 04:13:51;;;;;;;0.20;0.20;;;;;;;;;;5011085;28;20041;-62
2023/08/04 04:16:16;;;;;;;0.13;0.10;;;;;;;;;;5014559;28;20076;-62
2023/08/04 04:18:42;;;;;;;0.10;0.10;;;;;;;;;;5015956;28;20526;-63
2023/08/04 04:21:08;;;;;;;0.30;0.30;;;;;;;;;;5013929;28;20044;-62
2023/08/04 04:23:34;;;;;;;0.25;0.25;;;;;;;;;;5012065;28;20030;-62
2023/08/04 04:26:01;;;;;;;0.22;0.22;;;;;;;;;;5014998;28;20041;-62
2023/08/04 04:28:27;;;;;;;0.25;0.25;;;;;;;;;;5016835;28;20056;-62
2023/08/04 04:30:52;;;;;;;0.20;0.20;;;;;;;;;;5011942;28;20583;-62
2023/08/04 04:33:18;;;;;;;0.20;0.20;;;;;;;;;;5011777;28;20046;-62
2023/08/04 04:35:51;;;;;;;0.10;0.10;;;;;;;;;;5010655;28;20045;-62
2023/08/04 04:38:17;;;;;;;0.35;0.30;;;;;;;;;;5012071;28;20151;-62
2023/08/04 04:40:43;;;;;;;0.10;0.10;;;;;;;;;;5010469;28;20470;-62
2023/08/04 04:43:09;;;;;;;0.30;0.30;;;;;;;;;;5015855;28;20091;-62
2023/08/04 04:45:35;;;;;;;0.28;0.28;;;;;;;;;;5012389;28;20084;-62
2023/08/04 04:48:02;;;;;;;0.30;0.30;;;;;;;;;;5013770;28;20041;-62
2023/08/04 04:50:28;;;;;;;0.10;0.10;;;;;;;;;;5015466;28;20045;-62
2023/08/04 04:52:54;;;;;;;0.05;0.05;;;;;;;;;;5014309;28;20045;-62
2023/08/04 04:55:20;;;;;;;0.60;0.20;;;;;;;;;;5009317;28;20054;-62
2023/08/04 04:57:46;;;;;;;0.52;0.10;;;;;;;;;;5010656;28;20053;-62
2023/08/04 05:00:12;;;;;;;0.30;0.22;;;;;;;;;;5013962;28;20052;-62
2023/08/04 05:02:38;;;;;;;1.17;0.30;;;;;;;;;;5013942;28;20123;-62
2023/08/04 05:05:04;;;;;;;0.20;0.20;;;;;;;;;;5013118;28;20042;-62
2023/08/04 05:07:30;;;;;;;0.55;0.30;;;;;;;;;;5011373;28;20037;-63
2023/08/04 05:09:56;;;;;;;0.85;0.17;;;;;;;;;;5013399;28;20042;-63
2023/08/04 05:12:22;;;;;;;0.20;0.20;;;;;;;;;;5014260;28;20042;-63
2023/08/04 05:14:48;;;;;;;0.20;0.20;;;;;;;;;;5011840;28;20045;-62
2023/08/04 05:17:14;;;;;;;0.20;0.20;;;;;;;;;;5012339;28;20042;-62
2023/08/04 05:19:40;;;;;;;1.35;0.25;;;;;;;;;;5013010;28;20499;-62
2023/08/04 05:22:06;;;;;;;0.20;0.20;;;;;;;;;;5013750;28;20455;-62
2023/08/04 05:24:32;;;;;;;0.20;0.20;;;;;;;;;;5009632;28;20068;-62
2023/08/04 05:26:59;;;;;;;0.60;0.25;;;;;;;;;;5010461;28;20129;-62
2023/08/04 05:29:25;;;;;;;0.20;0.20;;;;;;;;;;5011279;28;20049;-62
2023/08/04 05:31:51;;;;;;;0.10;0.10;;;;;;;;;;5009649;28;20289;-62
2023/08/04 05:34:17;;;;;;;0.25;0.10;;;;;;;;;;5010924;28;20034;-63
2023/08/04 05:36:43;;;;;;;0.10;0.10;;;;;;;;;;5011886;28;20041;-62
2023/08/04 05:39:09;;;;;;;0.10;0.10;;;;;;;;;;5011519;28;20125;-62
2023/08/04 05:41:35;;;;;;;0.20;0.20;;;;;;;;;;5014062;28;20136;-62
2023/08/04 05:44:01;;;;;;;0.30;0.30;;;;;;;;;;5013156;28;20052;-62
2023/08/04 05:46:27;;;;;;;0.25;0.22;;;;;;;;;;5014809;28;20037;-62
2023/08/04 05:48:53;;;;;;;0.28;0.28;;;;;;;;;;5004772;28;20096;-62
2023/08/04 05:51:19;;;;;;;0.47;0.28;;;;;;;;;;5010928;28;20050;-62
2023/08/04 05:53:45;;;;;;;0.32;0.30;;;;;;;;;;5012157;28;20774;-62
2023/08/04 05:56:11;;;;;;;0.10;0.10;;;;;;;;;;5014434;28;20100;-62
2023/08/04 05:58:37;;;;;;;0.55;0.40;;;;;;;;;;5011100;28;20046;-62
2023/08/04 06:01:03;;;;;;;0.20;0.20;;;;;;;;;;5011865;28;20092;-62
2023/08/04 06:03:29;;;;;;;1.30;0.30;;;;;;;;;;5011519;28;20037;-62
2023/08/04 06:05:55;;;;;;;0.20;0.20;;;;;;;;;;5008580;28;20049;-62
2023/08/04 06:08:21;;;;;;;0.20;0.20;;;;;;;;;;5010910;28;20040;-62
2023/08/04 06:10:47;;;;;;;0.20;0.20;;;;;;;;;;5008816;28;20054;-62
2023/08/04 06:13:13;;;;;;;0.30;0.30;;;;;;;;;;5008252;28;20037;-62
2023/08/04 06:15:39;;;;;;;0.20;0.10;;;;;;;;;;5011594;28;20455;-62
2023/08/04 06:18:05;;;;;;;0.30;0.28;;;;;;;;;;5013529;28;20541;-62
2023/08/04 06:20:32;;;;;;;0.20;0.20;;;;;;;;;;5009938;28;20048;-62
2023/08/04 06:22:58;;;;;;;0.20;0.20;;;;;;;;;;5013319;28;20536;-62
2023/08/04 06:25:24;;;;;;;0.55;0.30;;;;;;;;;;5013354;28;20133;-62
2023/08/04 06:27:50;;;;;;;0.20;0.20;;;;;;;;;;5013111;28;20128;-62
2023/08/04 06:30:18;;;;;;;0.20;0.20;;;;;;;;;;5012294;28;20404;-62
2023/08/04 06:32:44;;;;;;;0.20;0.20;;;;;;;;;;5013361;28;20126;-62
2023/08/04 06:35:10;;;;;;;0.15;0.15;;;;;;;;;;5013254;28;20399;-62
2023/08/04 06:37:36;;;;;;;0.20;0.20;;;;;;;;;;5009520;28;20038;-62
2023/08/04 06:40:03;;;;;;;0.25;0.10;;;;;;;;;;5009011;28;20035;-62
2023/08/04 06:42:29;;;;;;;0.20;0.20;;;;;;;;;;5011402;28;20085;-62
2023/08/04 06:44:55;;;;;;;0.88;0.40;;;;;;;;;;5013254;28;20075;-62
2023/08/04 06:47:21;;;;;;;0.68;0.20;;;;;;;;;;5009928;28;20037;-62
2023/08/04 06:49:47;;;;;;;0.20;0.20;;;;;;;;;;5009352;28;20046;-62
2023/08/04 06:52:13;;;;;;;0.10;0.10;;;;;;;;;;5011672;28;20472;-63
2023/08/04 06:54:39;;;;;;;0.22;0.20;;;;;;;;;;5010918;28;20424;-63
2023/08/04 06:57:05;;;;;;;1.27;0.30;;;;;;;;;;5012685;28;20037;-62
2023/08/04 06:59:31;;;;;;;0.38;0.32;;;;;;;;;;5012051;28;20045;-63
2023/08/04 07:01:58;;;;;;;0.20;0.20;;;;;;;;;;5013618;28;20090;-62
2023/08/04 07:04:24;;;;;;;0.20;0.20;;;;;;;;;;5011646;28;20037;-62
2023/08/04 07:06:50;;;;;;;0.22;0.22;;;;;;;;;;5011092;28;20030;-62
2023/08/04 07:09:16;;;;;;;0.20;0.20;;;;;;;;;;5010364;28;20041;-62
2023/08/04 07:11:42;;;;;;;0.40;0.32;;;;;;;;;;5009334;28;20125;-62
2023/08/04 07:14:08;;;;;;;0.20;0.20;;;;;;;;;;5009775;28;20567;-62
2023/08/04 07:16:34;;;;;;;0.30;0.20;;;;;;;;;;5012368;28;20029;-62
2023/08/04 07:19:00;;;;;;;0.08;0.08;;;;;;;;;;5014072;28;20317;-62
2023/08/04 07:21:26;;;;;;;0.30;0.30;;;;;;;;;;5017188;28;20065;-62
2023/08/04 07:23:52;;;;;;;0.45;0.20;;;;;;;;;;5013983;28;20791;-62
2023/08/04 07:26:18;;;;;;;0.20;0.20;;;;;;;;;;5014764;28;20414;-62
2023/08/04 07:28:44;;;;;;;0.35;0.22;;;;;;;;;;5016859;28;20042;-62
2023/08/04 07:31:10;;;;;;;0.30;0.30;;;;;;;;;;5010202;28;20045;-62
2023/08/04 07:33:37;;;;;;;0.20;0.20;;;;;;;;;;5017748;28;20053;-62
2023/08/04 07:36:04;;;;;;;1.60;0.50;;;;;;;;;;5016572;28;20073;-62
2023/08/04 07:38:30;;;;;;;0.50;0.35;;;;;;;;;;5016263;28;20065;-62
2023/08/04 07:40:57;;;;;;;1.13;0.32;;;;;;;;;;5012473;28;20033;-63
2023/08/04 07:43:23;;;;;;;1.02;0.40;;;;;;;;;;5010380;28;20045;-62
2023/08/04 07:45:49;;;;;;;0.65;0.50;;;;;;;;;;5020986;28;20554;-62
2023/08/04 07:48:15;;;;;;;1.20;0.63;;;;;;;;;;5011656;28;20393;-62
2023/08/04 07:50:48;;;;;;;0.50;0.43;;;;;;;;;;5016692;28;20065;-62
2023/08/04 07:53:14;;;;;;;0.40;0.40;;;;;;;;;;5010971;28;20159;-61
2023/08/04 07:55:40;;;;;;;1.42;0.70;;;;;;;;;;5018546;28;20041;-62
2023/08/04 07:58:09;;;;;;;0.60;0.60;;;;;;;;;;5018087;28;20037;-62
2023/08/04 08:00:35;;;;;;;0.60;0.45;;;;;;;;;;5020064;28;20030;-62
2023/08/04 08:03:02;;;;;;;0.40;0.30;;;;;;;;;;5015118;28;20495;-62
2023/08/04 08:05:28;;;;;;;0.50;0.50;;;;;;;;;;5018234;28;20404;-62
2023/08/04 08:07:54;;;;;;;0.45;0.38;;;;;;;;;;5019674;28;20510;-62
2023/08/04 08:10:20;;;;;;;0.40;0.30;;;;;;;;;;5014240;28;20621;-62
2023/08/04 08:12:47;;;;;;;2.30;0.38;;;;;;;;;;5013402;28;20045;-62
2023/08/04 08:15:13;;;;;;;0.35;0.30;;;;;;;;;;5016691;28;20041;-62
2023/08/04 08:17:39;;;;;;;0.60;0.52;;;;;;;;;;5016317;28;20037;-62
2023/08/04 08:20:06;;;;;;;0.73;0.50;;;;;;;;;;5012025;28;20433;-63
2023/08/04 08:22:32;;;;;;;1.80;0.50;;;;;;;;;;5012991;28;20406;-60
2023/08/04 08:24:58;;;;;;;1.60;0.40;;;;;;;;;;5021688;28;20033;-59
2023/08/04 08:27:24;;;;;;;2.28;0.88;;;;;;;;;;5007374;28;20045;-60
2023/08/04 08:29:54;;;;;;;0.93;0.50;;;;;;;;;;5015152;28;20049;-63
2023/08/04 08:32:20;;;;;;;0.82;0.43;;;;;;;;;;5020514;28;20435;-63
2023/08/04 08:34:46;;;;;;;0.60;0.50;;;;;;;;;;5018569;28;20042;-63
2023/08/04 08:37:12;;;;;;;0.55;0.47;;;;;;;;;;5017685;28;20045;-64
2023/08/04 08:39:38;;;;;;;0.90;0.20;;;;;;;;;;5016566;28;20034;-64
2023/08/04 08:42:04;;;;;;;0.20;0.20;;;;;;;;;;5014205;28;20050;-64
2023/08/04 08:44:30;;;;;;;0.35;0.30;;;;;;;;;;5013990;28;20112;-64
2023/08/04 08:46:56;;;;;;;0.20;0.20;;;;;;;;;;5017103;28;20452;-64
2023/08/04 08:49:26;;;;;;;1.05;0.20;;;;;;;;;;5015505;28;20379;-64
2023/08/04 08:51:54;;;;;;;0.40;0.20;;;;;;;;;;5015748;28;20045;-64
2023/08/04 08:54:20;;;;;;;0.35;0.20;;;;;;;;;;5010375;28;20057;-64
2023/08/04 08:56:46;;;;;;;0.30;0.20;;;;;;;;;;5018813;28;20049;-64
2023/08/04 08:59:12;;;;;;;0.20;0.13;;;;;;;;;;5013277;28;20400;-64
2023/08/04 09:01:38;;;;;;;0.45;0.30;;;;;;;;;;5014850;28;20045;-64
2023/08/04 09:04:05;;;;;;;1.20;0.57;;;;;;;;;;5007438;28;20138;-64
2023/08/04 09:06:32;;;;;;;0.50;0.40;;;;;;;;;;5013899;28;20053;-64
2023/08/04 09:09:01;;;;;;;0.40;0.20;;;;;;;;;;5011578;28;20104;-64
2023/08/04 09:11:29;;;;;;;0.57;0.43;;;;;;;;;;5011322;28;20049;-64
2023/08/04 09:13:55;;;;;;;1.10;0.40;;;;;;;;;;5016120;28;20060;-64
2023/08/04 09:16:32;;;;;;;0.40;0.38;;;;;;;;;;5015307;28;20046;-64
2023/08/04 09:19:03;;;;;;;0.90;0.60;;;;;;;;;;5017296;28;20042;-64
2023/08/04 09:21:29;;;;;;;0.70;0.70;;;;;;;;;;5017453;28;20041;-64
2023/08/04 09:23:55;;;;;;;1.70;0.63;;;;;;;;;;5016276;28;20044;-63
2023/08/04 09:26:21;;;;;;;0.40;0.40;;;;;;;;;;5015694;28;20117;-63
2023/08/04 09:29:06;;;;;;;0.82;0.63;;;;;;;;;;5016860;28;20990;-63
2023/08/04 09:31:39;;;;;;;0.57;0.50;;;;;;;;;;5015292;28;20030;-63
2023/08/04 09:34:05;;;;;;;1.60;0.35;;;;;;;;;;5011879;28;20045;-63
2023/08/04 09:36:32;;;;;;;0.85;0.40;;;;;;;;;;5019721;28;20038;-63
2023/08/04 09:39:05;;;;;;;0.57;0.35;;;;;;;;;;5021462;28;20121;-63
2023/08/04 09:41:34;;;;;;;1.80;0.60;;;;;;;;;;5018835;28;20133;-63
2023/08/04 09:44:04;;;;;;;0.40;0.40;;;;;;;;;;5011977;28;20117;-63
2023/08/04 09:46:30;;;;;;;3.42;0.90;;;;;;;;;;5017364;28;20423;-63
2023/08/04 09:48:59;;;;;;;0.50;0.40;;;;;;;;;;5011597;28;20038;-63
2023/08/04 09:51:26;;;;;;;0.73;0.38;;;;;;;;;;5013478;28;20072;-63
2023/08/04 09:53:56;;;;;;;0.47;0.47;;;;;;;;;;5017137;28;20426;-63
2023/08/04 09:56:24;;;;;;;0.20;0.20;;;;;;;;;;5011848;28;20549;-63
2023/08/04 09:58:50;;;;;;;0.30;0.30;;;;;;;;;;5016594;28;20041;-63
2023/08/04 10:01:17;;;;;;;0.75;0.40;;;;;;;;;;5013749;28;21007;-63
2023/08/04 10:03:44;;;;;;;1.17;0.47;;;;;;;;;;5016770;28;20057;-63
2023/08/04 10:06:10;;;;;;;0.40;0.40;;;;;;;;;;5009832;28;20045;-63
2023/08/04 10:08:39;;;;;;;0.63;0.50;;;;;;;;;;5015750;28;20128;-63
2023/08/04 10:11:06;;;;;;;0.40;0.40;;;;;;;;;;5011985;28;20046;-63
2023/08/04 10:13:36;;;;;;;0.30;0.30;;;;;;;;;;5012816;28;20073;-63
2023/08/04 10:16:04;;;;;;;0.40;0.40;;;;;;;;;;5014071;28;20519;-63
2023/08/04 10:18:49;;;;;;;0.43;0.38;;;;;;;;;;5012480;28;20052;-63
2023/08/04 10:21:17;;;;;;;0.60;0.40;;;;;;;;;;5015214;28;20904;-64
2023/08/04 10:23:43;;;;;;;0.75;0.40;;;;;;;;;;5006644;28;20091;-63
2023/08/04 10:26:12;;;;;;;0.60;0.30;;;;;;;;;;5011305;28;20041;-63
2023/08/04 10:28:56;;;;;;;0.90;0.40;;;;;;;;;;5017525;28;20037;-63
2023/08/04 10:31:22;;;;;;;1.55;0.60;;;;;;;;;;5011344;28;20046;-63
2023/08/04 10:34:08;;;;;;;1.27;0.50;;;;;;;;;;5015753;28;20045;-63
2023/08/04 10:36:52;;;;;;;1.30;0.80;;;;;;;;;;5016539;28;20042;-64
2023/08/04 10:39:26;;;;;;;1.00;0.30;;;;;;;;;;5011474;28;20561;-63
2023/08/04 10:41:52;;;;;;;0.57;0.47;;;;;;;;;;5010415;28;20042;-63
2023/08/04 10:44:18;;;;;;;1.35;0.40;;;;;;;;;;5015293;28;20034;-63
2023/08/04 10:46:47;;;;;;;0.30;0.30;;;;;;;;;;5010939;28;20056;-63
2023/08/04 10:49:14;;;;;;;0.63;0.38;;;;;;;;;;5008262;28;20037;-63
2023/08/04 10:51:40;;;;;;;0.40;0.25;;;;;;;;;;5016116;28;20074;-63
2023/08/04 10:54:06;;;;;;;1.05;0.30;;;;;;;;;;5009246;28;20058;-63
2023/08/04 10:56:32;;;;;;;1.25;0.40;;;;;;;;;;5016836;28;20133;-63
2023/08/04 10:58:58;;;;;;;0.93;0.40;;;;;;;;;;5013597;28;20890;-63
2023/08/04 11:01:27;;;;;;;0.38;0.28;;;;;;;;;;5017057;28;20077;-63
2023/08/04 11:03:54;;;;;;;0.77;0.50;;;;;;;;;;5018399;28;20045;-63
2023/08/04 11:06:20;;;;;;;1.10;0.52;;;;;;;;;;5014287;28;20045;-64
2023/08/04 11:08:46;;;;;;;0.75;0.50;;;;;;;;;;5014865;28;20557;-63
2023/08/04 11:11:13;;;;;;;1.25;0.50;;;;;;;;;;5012772;28;20038;-63
2023/08/04 11:13:42;;;;;;;0.85;0.40;;;;;;;;;;5016900;28;20120;-63
2023/08/04 11:16:08;;;;;;;0.45;0.38;;;;;;;;;;5012043;28;20575;-63
2023/08/04 11:18:35;;;;;;;1.15;0.43;;;;;;;;;;5015704;28;20049;-63
2023/08/04 11:21:02;;;;;;;0.80;0.43;;;;;;;;;;5014149;28;20550;-64
2023/08/04 11:23:29;;;;;;;1.85;0.40;;;;;;;;;;5014324;28;20038;-64
2023/08/04 11:25:56;;;;;;;0.28;0.25;;;;;;;;;;5015652;28;20095;-64
2023/08/04 11:28:22;;;;;;;1.35;0.32;;;;;;;;;;5017993;28;20041;-64
2023/08/04 11:30:48;;;;;;;0.43;0.30;;;;;;;;;;5009009;28;20065;-64
2023/08/04 11:33:15;;;;;;;0.65;0.40;;;;;;;;;;5017727;28;20125;-64
2023/08/04 11:35:41;;;;;;;0.52;0.30;;;;;;;;;;5017337;28;20052;-64
2023/08/04 11:38:07;;;;;;;1.55;0.30;;;;;;;;;;5015910;28;20041;-64
2023/08/04 11:40:34;;;;;;;0.68;0.47;;;;;;;;;;5014871;28;20073;-64
2023/08/04 11:43:01;;;;;;;1.50;0.32;;;;;;;;;;5013976;28;20050;-64
2023/08/04 11:45:30;;;;;;;0.57;0.50;;;;;;;;;;5017593;28;20069;-64
2023/08/04 11:47:56;;;;;;;1.35;0.65;;;;;;;;;;5017222;28;20057;-64
2023/08/04 11:50:23;;;;;;;1.10;0.52;;;;;;;;;;5013761;28;20324;-64
2023/08/04 11:52:49;;;;;;;0.55;0.40;;;;;;;;;;5013997;28;20470;-64
2023/08/04 11:55:15;;;;;;;3.03;0.73;;;;;;;;;;5014421;28;20093;-64
2023/08/04 11:58:07;;;;;;;1.52;0.63;;;;;;;;;;5018116;28;20100;-64
2023/08/04 12:00:37;;;;;;;0.65;0.60;;;;;;;;;;5013619;28;20171;-64
2023/08/04 12:03:03;;;;;;;2.08;0.60;;;;;;;;;;5015040;28;20048;-64
2023/08/04 12:05:30;;;;;;;1.58;0.70;;;;;;;;;;5016303;28;20152;-64
2023/08/04 12:07:57;;;;;;;0.77;0.70;;;;;;;;;;5018446;28;20042;-64
2023/08/04 12:10:26;;;;;;;0.63;0.40;;;;;;;;;;5018394;28;20049;-64
2023/08/04 12:12:53;;;;;;;1.33;0.63;;;;;;;;;;5018110;28;20041;-64
2023/08/04 12:15:19;;;;;;;0.75;0.38;;;;;;;;;;5017899;28;20041;-64
2023/08/04 12:17:45;;;;;;;0.50;0.32;;;;;;;;;;5015770;28;20527;-64
2023/08/04 12:20:12;;;;;;;0.20;0.20;;;;;;;;;;5014983;28;20378;-64
2023/08/04 12:22:38;;;;;;;0.70;0.43;;;;;;;;;;5015105;28;20129;-64
2023/08/04 12:25:05;;;;;;;0.47;0.30;;;;;;;;;;5016503;28;20474;-64
2023/08/04 12:27:31;;;;;;;0.98;0.60;;;;;;;;;;5020982;28;20041;-64
2023/08/04 12:29:57;;;;;;;0.32;0.30;;;;;;;;;;5018474;28;20049;-64
2023/08/04 12:32:23;;;;;;;0.70;0.52;;;;;;;;;;5016739;28;20416;-64
2023/08/04 12:34:49;;;;;;;0.70;0.40;;;;;;;;;;5018089;28;20045;-64
2023/08/04 12:37:15;;;;;;;1.38;0.20;;;;;;;;;;5016065;28;20053;-64
2023/08/04 12:39:41;;;;;;;0.75;0.32;;;;;;;;;;5016264;28;20510;-64
2023/08/04 12:42:07;;;;;;;0.68;0.50;;;;;;;;;;5022145;28;20519;-64
2023/08/04 12:44:33;;;;;;;1.60;0.55;;;;;;;;;;5022045;28;20041;-64
2023/08/04 12:46:59;;;;;;;1.70;0.80;;;;;;;;;;5022142;28;20049;-64
2023/08/04 12:49:25;;;;;;;1.58;0.60;;;;;;;;;;5024633;28;20037;-64
2023/08/04 12:51:51;;;;;;;1.33;0.60;;;;;;;;;;5014484;28;20140;-64
2023/08/04 12:54:17;;;;;;;0.57;0.38;;;;;;;;;;5016259;28;20076;-64
2023/08/04 12:56:44;;;;;;;1.80;0.80;;;;;;;;;;5016026;28;20089;-64
2023/08/04 12:59:10;;;;;;;2.05;0.73;;;;;;;;;;5017836;28;20038;-64
2023/08/04 13:01:37;;;;;;;1.40;0.73;;;;;;;;;;5020998;28;20423;-64
2023/08/04 13:04:03;;;;;;;1.48;0.88;;;;;;;;;;5024275;28;20048;-64
2023/08/04 13:06:32;;;;;;;0.90;0.65;;;;;;;;;;5010360;28;20381;-64
2023/08/04 13:08:58;;;;;;;0.75;0.55;;;;;;;;;;5020493;28;20100;-64
2023/08/04 13:11:24;;;;;;;0.85;0.68;;;;;;;;;;5019062;28;20495;-64
2023/08/04 13:13:50;;;;;;;0.73;0.50;;;;;;;;;;5017401;28;20079;-64
2023/08/04 13:16:16;;;;;;;0.40;0.40;;;;;;;;;;5013489;28;20042;-64
2023/08/04 13:18:42;;;;;;;0.70;0.57;;;;;;;;;;5016876;28;20440;-64
2023/08/04 13:21:08;;;;;;;0.77;0.70;;;;;;;;;;5013524;28;20076;-64
2023/08/04 13:23:34;;;;;;;1.33;0.57;;;;;;;;;;5018932;28;20041;-64
2023/08/04 13:26:04;;;;;;;0.38;0.38;;;;;;;;;;5020636;28;20132;-64
2023/08/04 13:28:30;;;;;;;0.55;0.40;;;;;;;;;;5018570;28;20517;-64
2023/08/04 13:30:56;;;;;;;0.65;0.35;;;;;;;;;;5018526;28;20129;-64
2023/08/04 13:33:22;;;;;;;0.52;0.40;;;;;;;;;;5015703;28;20581;-64
2023/08/04 13:35:48;;;;;;;0.63;0.50;;;;;;;;;;5015688;28;20045;-64
2023/08/04 13:38:14;;;;;;;0.43;0.38;;;;;;;;;;5022941;28;20057;-64
2023/08/04 13:40:40;;;;;;;1.10;0.52;;;;;;;;;;5019917;28;20040;-64
2023/08/04 13:43:06;;;;;;;0.80;0.50;;;;;;;;;;5021241;28;20041;-64
2023/08/04 13:45:32;;;;;;;1.88;0.50;;;;;;;;;;5023044;28;20400;-64
2023/08/04 13:47:58;;;;;;;1.70;0.50;;;;;;;;;;5015246;28;20042;-63
2023/08/04 13:50:24;;;;;;;0.68;0.60;;;;;;;;;;5012257;28;20041;-64
2023/08/04 13:52:50;;;;;;;1.13;0.38;;;;;;;;;;5013389;28;20054;-64
2023/08/04 13:55:16;;;;;;;0.50;0.40;;;;;;;;;;5019027;28;20136;-64
2023/08/04 13:57:42;;;;;;;0.90;0.40;;;;;;;;;;5010259;28;20053;-64
2023/08/04 14:00:12;;;;;;;0.22;0.22;;;;;;;;;;5017717;28;20052;-64
2023/08/04 14:02:38;;;;;;;1.33;0.52;;;;;;;;;;5014069;28;20044;-64
2023/08/04 14:05:06;;;;;;;0.50;0.40;;;;;;;;;;5014460;28;20048;-63
2023/08/04 14:07:32;;;;;;;0.40;0.35;;;;;;;;;;5019073;28;20565;-63
2023/08/04 14:09:58;;;;;;;1.30;0.90;;;;;;;;;;5017232;28;20073;-63
2023/08/04 14:12:30;;;;;;;0.40;0.40;;;;;;;;;;5014335;28;20038;-63
2023/08/04 14:14:56;;;;;;;0.40;0.40;;;;;;;;;;5013854;28;20038;-63
2023/08/04 14:17:22;;;;;;;0.52;0.40;;;;;;;;;;5017979;28;20043;-63
2023/08/04 14:19:48;;;;;;;0.30;0.30;;;;;;;;;;5016403;28;20092;-63
2023/08/04 14:22:15;;;;;;;0.52;0.40;;;;;;;;;;5014816;28;20046;-63
2023/08/04 14:24:41;;;;;;;0.77;0.50;;;;;;;;;;5017460;28;20080;-65
2023/08/04 14:27:07;;;;;;;0.65;0.50;;;;;;;;;;5018602;28;20056;-63
2023/08/04 14:29:34;;;;;;;0.95;0.20;;;;;;;;;;5018217;28;20519;-63
2023/08/04 14:32:00;;;;;;;0.43;0.30;;;;;;;;;;5018089;28;20045;-63
2023/08/04 14:34:26;;;;;;;0.47;0.40;;;;;;;;;;5013829;28;20037;-63
2023/08/04 14:36:53;;;;;;;0.40;0.30;;;;;;;;;;5018547;28;20212;-63
2023/08/04 14:39:19;;;;;;;0.80;0.40;;;;;;;;;;5016472;28;20043;-63
2023/08/04 14:41:45;;;;;;;0.60;0.50;;;;;;;;;;5007473;28;20088;-63